createdAt,value
2016-03-06T00:00:23.013Z,983.38
2016-03-06T00:01:23.032Z,983.36
2016-03-06T00:02:23.050Z,983.38
2016-03-06T00:03:23.068Z,983.34
2016-03-06T00:04:23.087Z,983.31
2016-03-06T00:05:23.105Z,983.36
2016-03-06T00:06:23.123Z,983.33
2016-03-06T00:07:23.131Z,983.36
2016-03-06T00:08:23.149Z,983.35
2016-03-06T00:09:23.167Z,983.34
2016-03-06T00:10:23.200Z,983.35
2016-03-06T00:11:23.205Z,983.31
2016-03-06T00:12:23.225Z,983.28
2016-03-06T00:13:23.258Z,983.29
2016-03-06T00:14:23.261Z,983.38
2016-03-06T00:15:23.279Z,983.42
2016-03-06T00:16:23.298Z,983.39
2016-03-06T00:17:23.315Z,983.37
2016-03-06T00:18:23.334Z,983.34
2016-03-06T00:19:23.352Z,983.38
2016-03-06T00:20:23.371Z,983.37
2016-03-06T00:21:23.389Z,983.38
2016-03-06T00:22:23.407Z,983.39
2016-03-06T00:23:23.425Z,983.37
2016-03-06T00:24:23.444Z,983.38
2016-03-06T00:25:23.462Z,983.37
2016-03-06T00:26:23.481Z,983.36
2016-03-06T00:27:23.498Z,983.35
2016-03-06T00:28:23.518Z,983.36
2016-03-06T00:29:23.536Z,983.33
2016-03-06T00:30:23.554Z,983.32
2016-03-06T00:31:23.572Z,983.33
2016-03-06T00:32:23.591Z,983.32
2016-03-06T00:33:23.608Z,983.34
2016-03-06T00:34:23.628Z,983.35
2016-03-06T00:35:23.645Z,983.37
2016-03-06T00:36:23.664Z,983.37
2016-03-06T00:37:23.682Z,983.38
2016-03-06T00:38:23.700Z,983.36
2016-03-06T00:39:23.719Z,983.38
2016-03-06T00:40:23.737Z,983.38
2016-03-06T00:41:23.755Z,983.41
2016-03-06T00:42:23.774Z,983.46
2016-03-06T00:43:23.791Z,983.45
2016-03-06T00:44:23.811Z,983.48
2016-03-06T00:45:23.829Z,983.5
2016-03-06T00:46:23.847Z,983.52
2016-03-06T00:47:23.865Z,983.5
2016-03-06T00:48:23.884Z,983.44
2016-03-06T00:49:23.901Z,983.49
2016-03-06T00:50:23.921Z,983.49
2016-03-06T00:51:23.938Z,983.46
2016-03-06T00:52:23.957Z,983.5
2016-03-06T00:53:23.975Z,983.5
2016-03-06T00:54:23.993Z,983.51
2016-03-06T00:55:23.995Z,983.52
2016-03-06T00:56:24.031Z,983.49
2016-03-06T00:57:24.048Z,983.49
2016-03-06T00:58:24.051Z,983.49
2016-03-06T00:59:24.084Z,983.44
2016-03-06T01:00:24.088Z,983.49
2016-03-06T01:01:24.106Z,983.51
2016-03-06T01:02:24.125Z,983.49
2016-03-06T01:03:24.142Z,983.49
2016-03-06T01:04:24.177Z,983.48
2016-03-06T01:05:24.179Z,983.48
2016-03-06T01:06:24.198Z,983.49
2016-03-06T01:07:24.231Z,983.49
2016-03-06T01:08:24.234Z,983.49
2016-03-06T01:09:24.252Z,983.52
2016-03-06T01:10:24.276Z,983.53
2016-03-06T01:11:24.294Z,983.53
2016-03-06T01:12:24.313Z,983.52
2016-03-06T01:13:24.330Z,983.54
2016-03-06T01:14:24.349Z,983.54
2016-03-06T01:15:24.367Z,983.47
2016-03-06T01:16:24.385Z,983.48
2016-03-06T01:17:24.404Z,983.48
2016-03-06T01:18:24.423Z,983.49
2016-03-06T01:19:24.440Z,983.52
2016-03-06T01:20:24.459Z,983.51
2016-03-06T01:21:24.477Z,983.55
2016-03-06T01:22:24.495Z,983.55
2016-03-06T01:23:24.514Z,983.58
2016-03-06T01:24:24.532Z,983.61
2016-03-06T01:25:24.566Z,983.58
2016-03-06T01:26:24.569Z,983.55
2016-03-06T01:27:24.572Z,983.59
2016-03-06T01:28:24.606Z,983.52
2016-03-06T01:29:24.608Z,983.52
2016-03-06T01:30:24.626Z,983.58
2016-03-06T01:31:24.660Z,983.52
2016-03-06T01:32:24.663Z,983.52
2016-03-06T01:33:24.681Z,983.52
2016-03-06T01:34:24.700Z,983.53
2016-03-06T01:35:24.718Z,983.52
2016-03-06T01:36:24.752Z,983.51
2016-03-06T01:37:24.754Z,983.53
2016-03-06T01:38:24.772Z,983.49
2016-03-06T01:39:24.791Z,983.5
2016-03-06T01:40:24.810Z,983.49
2016-03-06T01:41:24.827Z,983.51
2016-03-06T01:42:24.846Z,983.48
2016-03-06T01:43:24.865Z,983.47
2016-03-06T01:44:24.883Z,983.48
2016-03-06T01:45:24.901Z,983.5
2016-03-06T01:46:24.919Z,983.47
2016-03-06T01:47:24.937Z,983.5
2016-03-06T01:48:24.956Z,983.49
2016-03-06T01:49:24.974Z,983.47
2016-03-06T01:50:24.993Z,983.49
2016-03-06T01:51:25.011Z,983.48
2016-03-06T01:52:25.029Z,983.48
2016-03-06T01:53:25.047Z,983.43
2016-03-06T01:54:25.081Z,983.43
2016-03-06T01:55:25.084Z,983.42
2016-03-06T01:56:25.103Z,983.42
2016-03-06T01:57:25.120Z,983.39
2016-03-06T01:58:25.139Z,983.39
2016-03-06T01:59:25.158Z,983.39
2016-03-06T02:00:25.176Z,983.49
2016-03-06T02:01:25.194Z,983.45
2016-03-06T02:02:25.197Z,983.49
2016-03-06T02:03:25.230Z,983.51
2016-03-06T02:04:25.249Z,983.5
2016-03-06T02:05:25.252Z,983.48
2016-03-06T02:06:25.286Z,983.51
2016-03-06T02:07:25.288Z,983.47
2016-03-06T02:08:25.307Z,983.47
2016-03-06T02:09:25.324Z,983.49
2016-03-06T02:10:25.343Z,983.47
2016-03-06T02:11:25.361Z,983.47
2016-03-06T02:12:25.380Z,983.46
2016-03-06T02:13:25.398Z,983.44
2016-03-06T02:14:25.416Z,983.41
2016-03-06T02:15:25.435Z,983.38
2016-03-06T02:16:25.454Z,983.32
2016-03-06T02:17:25.471Z,983.32
2016-03-06T02:18:25.490Z,983.31
2016-03-06T02:19:25.507Z,983.31
2016-03-06T02:20:25.526Z,983.29
2016-03-06T02:21:25.545Z,983.31
2016-03-06T02:22:25.562Z,983.3
2016-03-06T02:23:25.581Z,983.31
2016-03-06T02:24:25.600Z,983.33
2016-03-06T02:25:25.617Z,983.34
2016-03-06T02:26:25.637Z,983.3
2016-03-06T02:27:25.654Z,983.32
2016-03-06T02:28:25.673Z,983.29
2016-03-06T02:29:25.675Z,983.33
2016-03-06T02:30:25.694Z,983.35
2016-03-06T02:31:25.712Z,983.35
2016-03-06T02:32:25.731Z,983.37
2016-03-06T02:33:25.749Z,983.35
2016-03-06T02:34:25.767Z,983.37
2016-03-06T02:35:25.785Z,983.32
2016-03-06T02:36:25.804Z,983.34
2016-03-06T02:37:25.822Z,983.38
2016-03-06T02:38:25.841Z,983.3
2016-03-06T02:39:25.858Z,983.31
2016-03-06T02:40:25.877Z,983.31
2016-03-06T02:41:25.895Z,983.3
2016-03-06T02:42:25.913Z,983.29
2016-03-06T02:43:25.932Z,983.32
2016-03-06T02:44:25.950Z,983.33
2016-03-06T02:45:25.969Z,983.32
2016-03-06T02:46:25.987Z,983.33
2016-03-06T02:47:26.005Z,983.36
2016-03-06T02:48:26.024Z,983.3
2016-03-06T02:49:26.042Z,983.31
2016-03-06T02:50:26.060Z,983.27
2016-03-06T02:51:26.078Z,983.29
2016-03-06T02:52:26.096Z,983.32
2016-03-06T02:53:26.115Z,983.37
2016-03-06T02:54:26.118Z,983.36
2016-03-06T02:55:26.151Z,983.35
2016-03-06T02:56:26.170Z,983.36
2016-03-06T02:57:26.172Z,983.4
2016-03-06T02:58:26.206Z,983.4
2016-03-06T02:59:26.209Z,983.39
2016-03-06T03:00:26.228Z,983.34
2016-03-06T03:01:26.245Z,983.38
2016-03-06T03:02:26.265Z,983.4
2016-03-06T03:03:26.283Z,983.39
2016-03-06T03:04:26.301Z,983.38
2016-03-06T03:05:26.319Z,983.38
2016-03-06T03:06:26.369Z,983.4
2016-03-06T03:07:26.355Z,983.4
2016-03-06T03:08:26.375Z,983.42
2016-03-06T03:09:26.392Z,983.43
2016-03-06T03:10:26.411Z,983.43
2016-03-06T03:11:26.429Z,983.43
2016-03-06T03:12:26.432Z,983.4
2016-03-06T03:13:26.465Z,983.42
2016-03-06T03:14:26.485Z,983.48
2016-03-06T03:15:26.487Z,983.43
2016-03-06T03:16:26.521Z,983.44
2016-03-06T03:17:26.523Z,983.43
2016-03-06T03:18:26.542Z,983.47
2016-03-06T03:19:26.560Z,983.44
2016-03-06T03:20:26.579Z,983.47
2016-03-06T03:21:26.596Z,983.47
2016-03-06T03:22:26.615Z,983.51
2016-03-06T03:23:26.633Z,983.53
2016-03-06T03:24:26.652Z,983.51
2016-03-06T03:25:26.670Z,983.5
2016-03-06T03:26:26.688Z,983.55
2016-03-06T03:27:26.706Z,983.52
2016-03-06T03:28:26.725Z,983.53
2016-03-06T03:29:26.742Z,983.56
2016-03-06T03:30:26.762Z,983.53
2016-03-06T03:31:26.764Z,983.54
2016-03-06T03:32:26.783Z,983.53
2016-03-06T03:33:26.816Z,983.56
2016-03-06T03:34:26.820Z,983.56
2016-03-06T03:35:26.837Z,983.56
2016-03-06T03:36:26.856Z,983.58
2016-03-06T03:37:26.874Z,983.54
2016-03-06T03:38:26.890Z,983.55
2016-03-06T03:39:26.911Z,983.53
2016-03-06T03:40:26.898Z,983.51
2016-03-06T03:41:26.900Z,983.57
2016-03-06T03:42:26.920Z,983.58
2016-03-06T03:43:26.908Z,983.57
2016-03-06T03:44:26.922Z,983.58
2016-03-06T03:45:26.935Z,983.58
2016-03-06T03:46:26.947Z,983.59
2016-03-06T03:47:26.960Z,983.59
2016-03-06T03:48:26.974Z,983.56
2016-03-06T03:49:26.975Z,983.59
2016-03-06T03:50:26.990Z,983.6
2016-03-06T03:51:27.022Z,983.63
2016-03-06T03:52:27.022Z,983.59
2016-03-06T03:53:27.039Z,983.65
2016-03-06T03:54:27.058Z,983.67
2016-03-06T03:55:27.075Z,983.65
2016-03-06T03:56:27.094Z,983.66
2016-03-06T03:57:27.113Z,983.72
2016-03-06T03:58:27.130Z,983.69
2016-03-06T03:59:27.148Z,983.67
2016-03-06T04:00:27.165Z,983.71
2016-03-06T04:01:27.184Z,983.67
2016-03-06T04:02:27.202Z,983.7
2016-03-06T04:03:27.204Z,983.72
2016-03-06T04:04:27.221Z,983.72
2016-03-06T04:05:27.257Z,983.76
2016-03-06T04:06:27.259Z,983.76
2016-03-06T04:07:27.276Z,983.76
2016-03-06T04:08:27.296Z,983.75
2016-03-06T04:09:27.313Z,983.76
2016-03-06T04:10:27.332Z,983.81
2016-03-06T04:11:27.351Z,983.81
2016-03-06T04:12:27.368Z,983.78
2016-03-06T04:13:27.387Z,983.78
2016-03-06T04:14:27.405Z,983.82
2016-03-06T04:15:27.423Z,983.82
2016-03-06T04:16:27.442Z,983.8
2016-03-06T04:17:27.445Z,983.8
2016-03-06T04:18:27.462Z,983.83
2016-03-06T04:19:27.497Z,983.87
2016-03-06T04:20:27.500Z,983.82
2016-03-06T04:21:27.517Z,983.84
2016-03-06T04:22:27.552Z,983.86
2016-03-06T04:23:27.555Z,983.88
2016-03-06T04:24:27.572Z,983.89
2016-03-06T04:25:27.591Z,983.91
2016-03-06T04:26:27.609Z,983.89
2016-03-06T04:27:27.628Z,983.97
2016-03-06T04:28:27.646Z,983.9
2016-03-06T04:29:27.664Z,983.9
2016-03-06T04:30:27.682Z,983.94
2016-03-06T04:31:27.686Z,983.94
2016-03-06T04:32:27.704Z,983.94
2016-03-06T04:33:27.721Z,983.96
2016-03-06T04:34:27.741Z,983.94
2016-03-06T04:35:27.774Z,984
2016-03-06T04:36:27.777Z,984
2016-03-06T04:37:27.795Z,984.06
2016-03-06T04:38:27.813Z,984.06
2016-03-06T04:39:27.832Z,984.01
2016-03-06T04:40:27.850Z,984.05
2016-03-06T04:41:27.868Z,984.08
2016-03-06T04:42:27.887Z,984.05
2016-03-06T04:43:27.890Z,984.04
2016-03-06T04:44:27.907Z,984.09
2016-03-06T04:45:27.942Z,984.05
2016-03-06T04:46:27.945Z,984.09
2016-03-06T04:47:27.962Z,984.08
2016-03-06T04:48:27.981Z,984.1
2016-03-06T04:49:28.000Z,984.08
2016-03-06T04:50:28.017Z,984.09
2016-03-06T04:51:28.036Z,984.11
2016-03-06T04:52:28.054Z,984.1
2016-03-06T04:53:28.073Z,984.12
2016-03-06T04:54:28.092Z,984.06
2016-03-06T04:55:28.094Z,984.07
2016-03-06T04:56:28.116Z,984.09
2016-03-06T04:57:28.135Z,984.04
2016-03-06T04:58:28.153Z,984.08
2016-03-06T04:59:28.172Z,984.08
2016-03-06T05:00:28.190Z,984.05
2016-03-06T05:01:28.208Z,984.07
2016-03-06T05:02:28.226Z,984.05
2016-03-06T05:03:28.246Z,984.06
2016-03-06T05:04:28.248Z,984.07
2016-03-06T05:05:28.266Z,984.08
2016-03-06T05:06:28.284Z,984.08
2016-03-06T05:07:28.302Z,984.09
2016-03-06T05:08:28.337Z,984.09
2016-03-06T05:09:28.339Z,984.13
2016-03-06T05:10:28.357Z,984.08
2016-03-06T05:11:28.376Z,984.1
2016-03-06T05:12:28.394Z,984.1
2016-03-06T05:13:28.412Z,984.07
2016-03-06T05:14:28.431Z,984.12
2016-03-06T05:15:28.449Z,984.1
2016-03-06T05:16:28.451Z,984.07
2016-03-06T05:17:28.470Z,984.1
2016-03-06T05:18:28.504Z,984.08
2016-03-06T05:19:28.506Z,984.09
2016-03-06T05:20:28.525Z,984.1
2016-03-06T05:21:28.544Z,984.11
2016-03-06T05:22:28.561Z,984.1
2016-03-06T05:23:28.580Z,984.11
2016-03-06T05:24:28.598Z,984.07
2016-03-06T05:25:28.617Z,984.11
2016-03-06T05:26:28.636Z,984.1
2016-03-06T05:27:28.638Z,984.09
2016-03-06T05:28:28.671Z,984.12
2016-03-06T05:29:28.675Z,984.14
2016-03-06T05:30:28.693Z,984.13
2016-03-06T05:31:28.710Z,984.11
2016-03-06T05:32:28.729Z,984.11
2016-03-06T05:33:28.747Z,984.12
2016-03-06T05:34:28.766Z,984.12
2016-03-06T05:35:28.784Z,984.11
2016-03-06T05:36:28.802Z,984.06
2016-03-06T05:37:28.821Z,984.09
2016-03-06T05:38:28.840Z,984.09
2016-03-06T05:39:28.842Z,984.1
2016-03-06T05:40:28.875Z,984.13
2016-03-06T05:41:28.879Z,984.11
2016-03-06T05:42:28.896Z,984.1
2016-03-06T05:43:28.915Z,984.09
2016-03-06T05:44:28.934Z,984.15
2016-03-06T05:45:28.951Z,984.15
2016-03-06T05:46:28.970Z,984.13
2016-03-06T05:47:28.989Z,984.13
2016-03-06T05:48:29.006Z,984.09
2016-03-06T05:49:29.009Z,984.14
2016-03-06T05:50:29.028Z,984.11
2016-03-06T05:51:29.045Z,984.12
2016-03-06T05:52:29.064Z,984.11
2016-03-06T05:53:29.083Z,984.1
2016-03-06T05:54:29.100Z,984.12
2016-03-06T05:55:29.119Z,984.1
2016-03-06T05:56:29.138Z,984.07
2016-03-06T05:57:29.155Z,984.1
2016-03-06T05:58:29.174Z,984.09
2016-03-06T05:59:29.192Z,984.09
2016-03-06T06:00:29.210Z,984.08
2016-03-06T06:01:29.214Z,984.05
2016-03-06T06:02:29.232Z,984.12
2016-03-06T06:03:29.265Z,984.09
2016-03-06T06:04:29.269Z,984.17
2016-03-06T06:05:29.287Z,984.14
2016-03-06T06:06:29.304Z,984.13
2016-03-06T06:07:29.324Z,984.11
2016-03-06T06:08:29.341Z,984.14
2016-03-06T06:09:29.360Z,984.16
2016-03-06T06:10:29.379Z,984.14
2016-03-06T06:11:29.381Z,984.14
2016-03-06T06:12:29.399Z,984.14
2016-03-06T06:13:29.418Z,984.14
2016-03-06T06:14:29.436Z,984.16
2016-03-06T06:15:29.453Z,984.14
2016-03-06T06:16:29.473Z,984.17
2016-03-06T06:17:29.490Z,984.17
2016-03-06T06:18:29.509Z,984.17
2016-03-06T06:19:29.527Z,984.18
2016-03-06T06:20:29.545Z,984.2
2016-03-06T06:21:29.564Z,984.19
2016-03-06T06:22:29.567Z,984.21
2016-03-06T06:23:29.585Z,984.23
2016-03-06T06:24:29.619Z,984.24
2016-03-06T06:25:29.622Z,984.23
2016-03-06T06:26:29.639Z,984.28
2016-03-06T06:27:29.659Z,984.26
2016-03-06T06:28:29.677Z,984.23
2016-03-06T06:29:29.694Z,984.24
2016-03-06T06:30:29.713Z,984.24
2016-03-06T06:31:29.732Z,984.27
2016-03-06T06:32:29.735Z,984.25
2016-03-06T06:33:29.752Z,984.27
2016-03-06T06:34:29.771Z,984.25
2016-03-06T06:35:29.788Z,984.26
2016-03-06T06:36:29.808Z,984.25
2016-03-06T06:37:29.826Z,984.23
2016-03-06T06:38:29.843Z,984.25
2016-03-06T06:39:29.863Z,984.24
2016-03-06T06:40:29.881Z,984.29
2016-03-06T06:41:29.884Z,984.29
2016-03-06T06:42:29.901Z,984.31
2016-03-06T06:43:29.920Z,984.27
2016-03-06T06:44:29.938Z,984.29
2016-03-06T06:45:29.957Z,984.23
2016-03-06T06:46:29.990Z,984.29
2016-03-06T06:47:29.993Z,984.29
2016-03-06T06:48:30.012Z,984.33
2016-03-06T06:49:30.031Z,984.29
2016-03-06T06:50:30.048Z,984.3
2016-03-06T06:51:30.066Z,984.33
2016-03-06T06:52:30.069Z,984.35
2016-03-06T06:53:30.103Z,984.36
2016-03-06T06:54:30.105Z,984.34
2016-03-06T06:55:30.125Z,984.35
2016-03-06T06:56:30.142Z,984.34
2016-03-06T06:57:30.161Z,984.37
2016-03-06T06:58:30.179Z,984.34
2016-03-06T06:59:30.197Z,984.35
2016-03-06T07:00:30.216Z,984.39
2016-03-06T07:01:30.234Z,984.32
2016-03-06T07:02:30.252Z,984.38
2016-03-06T07:03:30.255Z,984.38
2016-03-06T07:04:30.274Z,984.36
2016-03-06T07:05:30.292Z,984.39
2016-03-06T07:06:30.315Z,984.38
2016-03-06T07:07:30.334Z,984.46
2016-03-06T07:08:30.336Z,984.44
2016-03-06T07:09:30.354Z,984.39
2016-03-06T07:10:30.373Z,984.46
2016-03-06T07:11:30.391Z,984.49
2016-03-06T07:12:30.409Z,984.43
2016-03-06T07:13:30.428Z,984.52
2016-03-06T07:14:30.446Z,984.51
2016-03-06T07:15:30.464Z,984.52
2016-03-06T07:16:30.483Z,984.54
2016-03-06T07:17:30.486Z,984.53
2016-03-06T07:18:30.519Z,984.58
2016-03-06T07:19:30.522Z,984.6
2016-03-06T07:20:30.539Z,984.55
2016-03-06T07:21:30.558Z,984.52
2016-03-06T07:22:30.577Z,984.57
2016-03-06T07:23:30.595Z,984.58
2016-03-06T07:24:30.613Z,984.58
2016-03-06T07:25:30.632Z,984.6
2016-03-06T07:26:30.650Z,984.62
2016-03-06T07:27:30.669Z,984.63
2016-03-06T07:28:30.671Z,984.58
2016-03-06T07:29:30.689Z,984.59
2016-03-06T07:30:30.708Z,984.62
2016-03-06T07:31:30.727Z,984.61
2016-03-06T07:32:30.744Z,984.65
2016-03-06T07:33:30.763Z,984.62
2016-03-06T07:34:30.781Z,984.61
2016-03-06T07:35:30.799Z,984.62
2016-03-06T07:36:30.818Z,984.67
2016-03-06T07:37:30.820Z,984.67
2016-03-06T07:38:30.838Z,984.68
2016-03-06T07:39:30.857Z,984.66
2016-03-06T07:40:30.875Z,984.67
2016-03-06T07:41:30.893Z,984.69
2016-03-06T07:42:30.912Z,984.75
2016-03-06T07:43:30.931Z,984.75
2016-03-06T07:44:30.948Z,984.74
2016-03-06T07:45:30.967Z,984.75
2016-03-06T07:46:30.970Z,984.76
2016-03-06T07:47:31.003Z,984.78
2016-03-06T07:48:31.006Z,984.8
2016-03-06T07:49:31.025Z,984.8
2016-03-06T07:50:31.042Z,984.83
2016-03-06T07:51:31.077Z,984.84
2016-03-06T07:52:31.079Z,984.83
2016-03-06T07:53:31.097Z,984.86
2016-03-06T07:54:31.116Z,984.88
2016-03-06T07:55:31.133Z,984.91
2016-03-06T07:56:31.152Z,984.86
2016-03-06T07:57:31.155Z,984.86
2016-03-06T07:58:31.174Z,984.88
2016-03-06T07:59:31.192Z,984.88
2016-03-06T08:00:31.210Z,984.9
2016-03-06T08:01:31.229Z,984.92
2016-03-06T08:02:31.247Z,984.91
2016-03-06T08:03:31.265Z,984.91
2016-03-06T08:04:31.283Z,984.96
2016-03-06T08:05:31.301Z,984.97
2016-03-06T08:06:31.313Z,984.99
2016-03-06T08:07:31.330Z,985
2016-03-06T08:08:31.349Z,984.99
2016-03-06T08:09:31.367Z,984.99
2016-03-06T08:10:31.385Z,985
2016-03-06T08:11:31.403Z,985.02
2016-03-06T08:12:31.422Z,985.04
2016-03-06T08:13:31.425Z,985.02
2016-03-06T08:14:31.474Z,985.03
2016-03-06T08:15:31.461Z,985.05
2016-03-06T08:16:31.479Z,985.1
2016-03-06T08:17:31.497Z,985.08
2016-03-06T08:18:31.517Z,985.06
2016-03-06T08:19:31.534Z,985.1
2016-03-06T08:20:31.553Z,985.11
2016-03-06T08:21:31.571Z,985.11
2016-03-06T08:22:31.590Z,985.13
2016-03-06T08:23:31.608Z,985.16
2016-03-06T08:24:31.625Z,985.16
2016-03-06T08:25:31.629Z,985.16
2016-03-06T08:26:31.647Z,985.15
2016-03-06T08:27:31.666Z,985.19
2016-03-06T08:28:31.699Z,985.16
2016-03-06T08:29:31.702Z,985.16
2016-03-06T08:30:31.720Z,985.12
2016-03-06T08:31:31.738Z,985.18
2016-03-06T08:32:31.757Z,985.13
2016-03-06T08:33:31.774Z,985.23
2016-03-06T08:34:31.793Z,985.22
2016-03-06T08:35:31.812Z,985.22
2016-03-06T08:36:31.830Z,985.22
2016-03-06T08:37:31.848Z,985.27
2016-03-06T08:38:31.852Z,985.24
2016-03-06T08:39:31.885Z,985.24
2016-03-06T08:40:31.903Z,985.28
2016-03-06T08:41:31.907Z,985.22
2016-03-06T08:42:31.924Z,985.23
2016-03-06T08:43:31.943Z,985.27
2016-03-06T08:44:31.962Z,985.29
2016-03-06T08:45:31.979Z,985.31
2016-03-06T08:46:31.998Z,985.31
2016-03-06T08:47:32.016Z,985.31
2016-03-06T08:48:32.034Z,985.37
2016-03-06T08:49:32.053Z,985.38
2016-03-06T08:50:32.070Z,985.41
2016-03-06T08:51:32.090Z,985.43
2016-03-06T08:52:32.092Z,985.42
2016-03-06T08:53:32.126Z,985.49
2016-03-06T08:54:32.128Z,985.44
2016-03-06T08:55:32.147Z,985.47
2016-03-06T08:56:32.166Z,985.48
2016-03-06T08:57:32.183Z,985.5
2016-03-06T08:58:32.202Z,985.47
2016-03-06T08:59:32.220Z,985.48
2016-03-06T09:00:32.239Z,985.49
2016-03-06T09:01:32.257Z,985.53
2016-03-06T09:02:32.275Z,985.49
2016-03-06T09:03:32.294Z,985.51
2016-03-06T09:04:32.312Z,985.5
2016-03-06T09:05:32.329Z,985.53
2016-03-06T09:06:32.349Z,985.57
2016-03-06T09:07:32.366Z,985.58
2016-03-06T09:08:32.369Z,985.61
2016-03-06T09:09:32.404Z,985.58
2016-03-06T09:10:32.406Z,985.64
2016-03-06T09:11:32.424Z,985.66
2016-03-06T09:12:32.443Z,985.64
2016-03-06T09:13:32.476Z,985.63
2016-03-06T09:14:32.479Z,985.61
2016-03-06T09:15:32.498Z,985.64
2016-03-06T09:16:32.515Z,985.64
2016-03-06T09:17:32.535Z,985.63
2016-03-06T09:18:32.553Z,985.73
2016-03-06T09:19:32.570Z,985.75
2016-03-06T09:20:32.590Z,985.76
2016-03-06T09:21:32.608Z,985.73
2016-03-06T09:22:32.625Z,985.74
2016-03-06T09:23:32.644Z,985.79
2016-03-06T09:24:32.662Z,985.75
2016-03-06T09:25:32.681Z,985.73
2016-03-06T09:26:32.699Z,985.73
2016-03-06T09:27:32.717Z,985.67
2016-03-06T09:28:32.735Z,985.7
2016-03-06T09:29:32.754Z,985.72
2016-03-06T09:30:32.772Z,985.69
2016-03-06T09:31:32.791Z,985.68
2016-03-06T09:32:32.809Z,985.72
2016-03-06T09:33:32.827Z,985.68
2016-03-06T09:34:32.830Z,985.75
2016-03-06T09:35:32.849Z,985.8
2016-03-06T09:36:32.866Z,985.77
2016-03-06T09:37:32.885Z,985.73
2016-03-06T09:38:32.904Z,985.74
2016-03-06T09:39:32.921Z,985.78
2016-03-06T09:40:32.940Z,985.78
2016-03-06T09:41:32.958Z,985.79
2016-03-06T09:42:32.977Z,985.79
2016-03-06T09:43:32.995Z,985.76
2016-03-06T09:44:33.012Z,985.77
2016-03-06T09:45:33.032Z,985.77
2016-03-06T09:46:33.050Z,985.8
2016-03-06T09:47:33.067Z,985.82
2016-03-06T09:48:33.087Z,985.84
2016-03-06T09:49:33.104Z,985.84
2016-03-06T09:50:33.123Z,985.82
2016-03-06T09:51:33.142Z,985.85
2016-03-06T09:52:33.159Z,985.85
2016-03-06T09:53:33.178Z,985.82
2016-03-06T09:54:33.197Z,985.83
2016-03-06T09:55:33.214Z,985.87
2016-03-06T09:56:33.233Z,985.86
2016-03-06T09:57:33.251Z,985.92
2016-03-06T09:58:33.270Z,985.89
2016-03-06T09:59:33.288Z,985.87
2016-03-06T10:00:33.305Z,985.94
2016-03-06T10:01:33.325Z,985.86
2016-03-06T10:02:33.343Z,985.85
2016-03-06T10:03:33.360Z,985.93
2016-03-06T10:04:33.380Z,985.92
2016-03-06T10:05:33.397Z,985.89
2016-03-06T10:06:33.416Z,985.86
2016-03-06T10:07:33.435Z,985.89
2016-03-06T10:08:33.452Z,985.87
2016-03-06T10:09:33.471Z,985.88
2016-03-06T10:10:33.474Z,985.89
2016-03-06T10:11:33.492Z,985.9
2016-03-06T10:12:33.526Z,985.93
2016-03-06T10:13:33.529Z,985.97
2016-03-06T10:14:33.562Z,985.96
2016-03-06T10:15:33.566Z,985.95
2016-03-06T10:16:33.584Z,985.96
2016-03-06T10:17:33.601Z,985.91
2016-03-06T10:18:33.620Z,985.92
2016-03-06T10:19:33.639Z,985.89
2016-03-06T10:20:33.672Z,985.84
2016-03-06T10:21:33.675Z,985.92
2016-03-06T10:22:33.693Z,985.84
2016-03-06T10:23:33.712Z,985.87
2016-03-06T10:24:33.730Z,985.85
2016-03-06T10:25:33.748Z,985.89
2016-03-06T10:26:33.767Z,985.85
2016-03-06T10:27:33.785Z,985.89
2016-03-06T10:28:33.803Z,985.87
2016-03-06T10:29:33.822Z,985.91
2016-03-06T10:30:33.855Z,985.97
2016-03-06T10:31:33.859Z,985.89
2016-03-06T10:32:33.877Z,985.94
2016-03-06T10:33:33.894Z,985.97
2016-03-06T10:34:33.914Z,985.99
2016-03-06T10:35:33.947Z,986.1
2016-03-06T10:36:33.949Z,986.05
2016-03-06T10:37:33.968Z,986.08
2016-03-06T10:38:33.986Z,986.08
2016-03-06T10:39:34.005Z,986.11
2016-03-06T10:40:34.038Z,986.1
2016-03-06T10:41:34.057Z,986.11
2016-03-06T10:42:34.060Z,986.12
2016-03-06T10:43:34.093Z,986.14
2016-03-06T10:44:34.096Z,986.14
2016-03-06T10:45:34.115Z,986.12
2016-03-06T10:46:34.148Z,986.1
2016-03-06T10:47:34.152Z,986.15
2016-03-06T10:48:34.185Z,986.17
2016-03-06T10:49:34.203Z,986.16
2016-03-06T10:50:34.222Z,986.15
2016-03-06T10:51:34.239Z,986.18
2016-03-06T10:52:34.259Z,986.14
2016-03-06T10:53:34.276Z,986.15
2016-03-06T10:54:34.295Z,986.24
2016-03-06T10:55:34.314Z,986.23
2016-03-06T10:56:34.331Z,986.24
2016-03-06T10:57:34.350Z,986.3
2016-03-06T10:58:34.369Z,986.23
2016-03-06T10:59:34.386Z,986.27
2016-03-06T11:00:34.405Z,986.29
2016-03-06T11:01:34.423Z,986.29
2016-03-06T11:02:34.442Z,986.3
2016-03-06T11:03:34.460Z,986.29
2016-03-06T11:04:34.478Z,986.31
2016-03-06T11:05:34.497Z,986.35
2016-03-06T11:06:34.515Z,986.36
2016-03-06T11:07:34.532Z,986.32
2016-03-06T11:08:34.552Z,986.32
2016-03-06T11:09:34.569Z,986.32
2016-03-06T11:10:34.619Z,986.25
2016-03-06T11:11:34.606Z,986.28
2016-03-06T11:12:34.624Z,986.29
2016-03-06T11:13:34.643Z,986.26
2016-03-06T11:14:34.662Z,986.26
2016-03-06T11:15:34.695Z,986.27
2016-03-06T11:16:34.698Z,986.26
2016-03-06T11:17:34.732Z,986.28
2016-03-06T11:18:34.735Z,986.27
2016-03-06T11:19:34.768Z,986.25
2016-03-06T11:20:34.787Z,986.27
2016-03-06T11:21:34.806Z,986.23
2016-03-06T11:22:34.823Z,986.27
2016-03-06T11:23:34.842Z,986.29
2016-03-06T11:24:34.859Z,986.2
2016-03-06T11:25:34.879Z,986.22
2016-03-06T11:26:34.912Z,986.23
2016-03-06T11:27:34.914Z,986.26
2016-03-06T11:28:34.934Z,986.21
2016-03-06T11:29:34.952Z,986.21
2016-03-06T11:30:34.969Z,986.19
2016-03-06T11:31:34.989Z,986.22
2016-03-06T11:32:35.006Z,986.22
2016-03-06T11:33:35.025Z,986.19
2016-03-06T11:34:35.044Z,986.18
2016-03-06T11:35:35.061Z,986.21
2016-03-06T11:36:35.096Z,986.25
2016-03-06T11:37:35.103Z,986.23
2016-03-06T11:38:35.123Z,986.22
2016-03-06T11:39:35.141Z,986.22
2016-03-06T11:40:35.158Z,986.2
2016-03-06T11:41:35.178Z,986.2
2016-03-06T11:42:35.211Z,986.16
2016-03-06T11:43:35.213Z,986.25
2016-03-06T11:44:35.233Z,986.19
2016-03-06T11:45:35.250Z,986.21
2016-03-06T11:46:35.285Z,986.19
2016-03-06T11:47:35.303Z,986.24
2016-03-06T11:48:35.321Z,986.23
2016-03-06T11:49:35.340Z,986.22
2016-03-06T11:50:35.357Z,986.21
2016-03-06T11:51:35.376Z,986.23
2016-03-06T11:52:35.394Z,986.22
2016-03-06T11:53:35.413Z,986.21
2016-03-06T11:54:35.431Z,986.25
2016-03-06T11:55:35.449Z,986.24
2016-03-06T11:56:35.468Z,986.26
2016-03-06T11:57:35.486Z,986.28
2016-03-06T11:58:35.504Z,986.28
2016-03-06T11:59:35.538Z,986.27
2016-03-06T12:00:35.540Z,986.35
2016-03-06T12:01:35.576Z,986.29
2016-03-06T12:02:35.578Z,986.3
2016-03-06T12:03:35.612Z,986.28
2016-03-06T12:04:35.630Z,986.28
2016-03-06T12:05:35.647Z,986.32
2016-03-06T12:06:35.667Z,986.26
2016-03-06T12:07:35.684Z,986.33
2016-03-06T12:08:35.703Z,986.29
2016-03-06T12:09:35.722Z,986.3
2016-03-06T12:10:35.739Z,986.29
2016-03-06T12:11:35.758Z,986.27
2016-03-06T12:12:35.777Z,986.26
2016-03-06T12:13:35.794Z,986.26
2016-03-06T12:14:35.813Z,986.26
2016-03-06T12:15:35.847Z,986.31
2016-03-06T12:16:35.865Z,986.3
2016-03-06T12:17:35.883Z,986.31
2016-03-06T12:18:35.901Z,986.33
2016-03-06T12:19:35.920Z,986.4
2016-03-06T12:20:35.938Z,986.35
2016-03-06T12:21:35.957Z,986.39
2016-03-06T12:22:35.974Z,986.4
2016-03-06T12:23:36.010Z,986.36
2016-03-06T12:24:36.012Z,986.32
2016-03-06T12:25:36.029Z,986.36
2016-03-06T12:26:36.049Z,986.34
2016-03-06T12:27:36.082Z,986.38
2016-03-06T12:28:36.100Z,986.38
2016-03-06T12:29:36.118Z,986.4
2016-03-06T12:30:36.138Z,986.43
2016-03-06T12:31:36.156Z,986.47